Phoenix, AZ (85009)

6:53 AM MST on December 22, 2014 (GMT -0700)
Werner Ent. Phoenix | Change Station
CLOSE
Current Station
Personal Weather Station
Location: Phoenix, AZ
Elevation: 1031 ft
Nearby Weather Stations

Elev 1031 ft 33.42 °N, 112.16 °W | Updated 19 seconds ago

Partly Cloudy
Partly Cloudy
44.9 °F
Feels Like 45 °F
N
1.0
Wind Variable Wind from NNE
Gusts 1.0 mph

Today
High -- | Low -- °F
--% Chance of Precip.
Yesterday
High -- | Low -- °F
Precip. -- in
7:29 AM 5:25 PM
New Moon, 0% visible
Pressure 29.98 in
Visibility 10.0 miles
Clouds Few 25000 ft
Windchill 45 °F
Dew Point 40 °F
Humidity 82%
Rainfall 0.00 in
Snow Depth Not available.
UV 0.0 out of 12
Pollen 6.20 out of 12
Air Quality Not available.
Flu Activity Not available.
METAR KPHX 221251Z 09006KT 10SM FEW250 09/06 A3000 RMK AO2 SLP152 T00890061

More Conditions Fewer Conditions

Pressure 29.98 in
Visibility 10.0 miles
Clouds Few 25000 ft
Windchill 45 °F
Dew Point 40 °F
Humidity 82%
Rainfall 0.00 in
Snow Depth Not available.
UV 0.0 out of 12
Pollen 6.20 out of 12
Air Quality Not available.
Flu Activity Not available.
METAR KPHX 221251Z 09006KT 10SM FEW250 09/06 A3000 RMK AO2 SLP152 T00890061

More Conditions Fewer Conditions

10-Day Weather Forecast

Almanac

Astronomy

Dec. 22, 2014 Rise Set
Actual Time
Civil Twilight
Nautical Twilight
Astronomical Twilight
Moon
Length of Visible Light
Length of Day
Tomorrow will be .
, % of the Moon is Illuminated

Today's Extremes

State Highs State Lows

Community

WunderPhotos

Upload Photos

1,779,599 photos uploaded!

WunderBlogs® & News

Nearby

Air Quality

  Air Quality AQ Index Pollutant
Not available.

Snow Depth

Station Depth Elevation

Earthquake Activity

City Distance Mag. Time & Date
Minimum magnitude displayed is 2.5.

Coastal Water Temperatures

Place Temperature

Nearby Weather Stations